Time;durP1;ratioP1;P1;durP2;ratioP2;P2;SDS_P1;SDS_P2;PMS_P1;PMS_P2;Temp;Humidity;BMP_temperature;BMP_pressure;BME280_temperature;BME280_humidity;BME280_pressure;Samples;Min_cycle;Max_cycle;Signal;HPM_P1;HPM_P2
2023/06/05 00:02:56;;;;;;;0.70;0.70;;;22.60;51.50;;;;;;222374;1267;22634;-51
2023/06/05 00:08:01;;;;;;;0.70;0.70;;;22.60;51.30;;;;;;222057;1269;22507;-56
2023/06/05 00:13:05;;;;;;;0.50;0.50;;;22.60;51.80;;;;;;222068;1269;25446;-55
2023/06/05 00:18:09;;;;;;;0.80;0.80;;;22.60;51.30;;;;;;222170;1269;25212;-54
2023/06/05 00:23:13;;;;;;;0.70;0.70;;;22.60;51.10;;;;;;222094;1269;22564;-51
2023/06/05 00:28:17;;;;;;;1.20;0.60;;;22.60;51.50;;;;;;222494;1269;22533;-52
2023/06/05 00:33:22;;;;;;;0.60;0.60;;;22.60;51.10;;;;;;222259;1268;22532;-49
2023/06/05 00:38:26;;;;;;;0.80;0.80;;;22.50;51.10;;;;;;222594;1267;24179;-52
2023/06/05 00:43:30;;;;;;;0.60;0.50;;;22.50;51.10;;;;;;222464;1268;22534;-52
2023/06/05 00:48:34;;;;;;;0.70;0.70;;;22.50;51.00;;;;;;222617;1268;23881;-53
2023/06/05 00:53:39;;;;;;;1.70;1.00;;;22.60;51.20;;;;;;222571;1268;23863;-52
2023/06/05 00:58:43;;;;;;;0.70;0.70;;;22.60;50.90;;;;;;222556;1268;24753;-53
2023/06/05 01:03:47;;;;;;;0.70;0.70;;;22.60;51.10;;;;;;222456;1267;22515;-57
2023/06/05 01:08:52;;;;;;;0.70;0.70;;;22.60;51.30;;;;;;222559;1267;22497;-54
2023/06/05 01:14:16;;;;;;;1.40;0.60;;;22.60;50.90;;;;;;222542;1268;25375;-55
2023/06/05 01:19:24;;;;;;;0.50;0.50;;;22.60;51.00;;;;;;222570;1268;24378;-55
2023/06/05 01:24:28;;;;;;;0.80;0.80;;;22.50;51.00;;;;;;222573;1268;25087;-55
2023/06/05 01:30:01;;;;;;;0.60;0.60;;;22.50;51.10;;;;;;222632;1268;24075;-51
2023/06/05 01:35:09;;;;;;;0.50;0.50;;;22.50;51.30;;;;;;222758;1267;22504;-52
2023/06/05 01:40:15;;;;;;;0.90;0.60;;;22.40;50.90;;;;;;222470;1256;24281;-52
2023/06/05 01:45:20;;;;;;;0.80;0.50;;;22.40;51.40;;;;;;222592;1264;22509;-51
2023/06/05 01:50:24;;;;;;;0.80;0.70;;;22.40;51.00;;;;;;222635;1268;22588;-53
2023/06/05 01:55:29;;;;;;;0.60;0.60;;;22.40;51.70;;;;;;222583;1268;24192;-56
2023/06/05 02:00:35;;;;;;;1.30;0.40;;;22.40;51.20;;;;;;222461;1268;22638;-50
2023/06/05 02:05:40;;;;;;;0.60;0.60;;;22.40;51.10;;;;;;222658;1268;25432;-52
2023/06/05 02:10:44;;;;;;;0.90;0.90;;;22.40;51.40;;;;;;222116;1265;583078;-52
2023/06/05 02:15:49;;;;;;;0.80;0.80;;;22.40;51.00;;;;;;222511;1268;22518;-57
2023/06/05 02:20:57;;;;;;;0.60;0.60;;;22.50;51.00;;;;;;222667;1268;24183;-53
2023/06/05 02:26:01;;;;;;;0.80;0.80;;;22.50;50.90;;;;;;222584;1266;22841;-56
2023/06/05 02:31:05;;;;;;;0.70;0.70;;;22.50;50.80;;;;;;222612;1268;24396;-50
2023/06/05 02:36:15;;;;;;;0.60;0.60;;;22.50;50.70;;;;;;222735;1265;23118;-55
2023/06/05 02:41:21;;;;;;;0.80;0.70;;;22.50;50.60;;;;;;222986;1268;25284;-54
2023/06/05 02:46:25;;;;;;;0.70;0.70;;;22.50;50.60;;;;;;222559;1265;26677;-52
2023/06/05 02:51:30;;;;;;;0.60;0.60;;;22.50;50.70;;;;;;222634;1268;22518;-54
2023/06/05 02:56:35;;;;;;;0.70;0.70;;;22.40;51.20;;;;;;222768;1262;22938;-49
2023/06/05 03:01:43;;;;;;;0.80;0.80;;;22.40;50.90;;;;;;222612;1268;22839;-53
2023/06/05 03:06:53;;;;;;;0.60;0.60;;;22.40;50.80;;;;;;222599;1268;24248;-55
2023/06/05 03:11:58;;;;;;;1.10;1.00;;;22.40;50.70;;;;;;222611;1267;24216;-53
2023/06/05 03:17:03;;;;;;;0.70;0.70;;;22.40;50.70;;;;;;222630;1266;22504;-55
2023/06/05 03:22:08;;;;;;;0.60;0.60;;;22.40;50.80;;;;;;222672;1268;22634;-55
2023/06/05 03:27:13;;;;;;;0.70;0.70;;;22.40;51.50;;;;;;222657;1266;22641;-52
2023/06/05 03:32:19;;;;;;;0.50;0.50;;;22.40;50.80;;;;;;222635;1266;22934;-53
2023/06/05 03:37:23;;;;;;;0.70;0.70;;;22.30;51.00;;;;;;222328;1269;24207;-51
2023/06/05 03:42:27;;;;;;;0.70;0.60;;;22.30;50.90;;;;;;222308;1269;22595;-50
2023/06/05 03:47:34;;;;;;;0.80;0.80;;;22.40;50.90;;;;;;222305;1269;22501;-50
2023/06/05 03:52:39;;;;;;;1.00;0.70;;;22.30;51.00;;;;;;222572;1262;24975;-54
2023/06/05 03:57:44;;;;;;;0.60;0.60;;;22.30;51.00;;;;;;222603;1265;24187;-52
2023/06/05 04:02:50;;;;;;;0.60;0.60;;;22.30;50.80;;;;;;222656;1269;22636;-56
2023/06/05 04:07:54;;;;;;;0.70;0.60;;;22.30;51.40;;;;;;222697;1262;24194;-52
2023/06/05 04:12:59;;;;;;;1.10;0.90;;;22.30;50.70;;;;;;222199;1269;22623;-52
2023/06/05 04:18:04;;;;;;;0.50;0.50;;;22.40;50.80;;;;;;222344;1246;25392;-53
2023/06/05 04:23:08;;;;;;;0.70;0.70;;;22.30;50.80;;;;;;222385;1269;22584;-57
2023/06/05 04:28:16;;;;;;;0.60;0.60;;;22.30;50.90;;;;;;222406;1269;26628;-53
2023/06/05 04:33:20;;;;;;;0.70;0.70;;;22.30;50.70;;;;;;222706;1268;22534;-54
2023/06/05 04:38:25;;;;;;;0.80;0.80;;;22.30;51.00;;;;;;222775;1262;22590;-52
2023/06/05 04:43:29;;;;;;;1.00;0.80;;;22.30;51.00;;;;;;222719;1268;22645;-55
2023/06/05 04:48:34;;;;;;;1.20;0.70;;;22.30;50.60;;;;;;223250;1265;22563;-49
2023/06/05 04:53:38;;;;;;;0.70;0.70;;;22.30;50.80;;;;;;223132;1268;25295;-48
2023/06/05 04:58:43;;;;;;;0.50;0.50;;;22.30;50.60;;;;;;222779;1268;22582;-50
2023/06/05 05:03:48;;;;;;;0.80;0.80;;;22.30;50.80;;;;;;222656;1267;22487;-52
2023/06/05 05:08:52;;;;;;;0.50;0.50;;;22.30;51.00;;;;;;222621;1266;25048;-53
2023/06/05 05:13:57;;;;;;;0.80;0.70;;;22.30;50.80;;;;;;222429;1268;24181;-52
2023/06/05 05:19:01;;;;;;;1.10;1.00;;;22.30;50.80;;;;;;222569;1265;23036;-55
2023/06/05 05:24:06;;;;;;;0.70;0.70;;;22.30;50.90;;;;;;222433;1268;22554;-54
2023/06/05 05:29:11;;;;;;;1.10;0.80;;;22.20;50.90;;;;;;222486;1265;22515;-57
2023/06/05 05:34:15;;;;;;;1.00;0.90;;;22.20;51.30;;;;;;222546;1268;22610;-52
2023/06/05 05:39:20;;;;;;;0.70;0.70;;;22.20;51.20;;;;;;222887;1264;25305;-53
2023/06/05 05:44:24;;;;;;;0.90;0.90;;;22.30;51.00;;;;;;222685;1268;24215;-53
2023/06/05 05:49:28;;;;;;;0.80;0.80;;;22.30;50.90;;;;;;222615;1256;24188;-52
2023/06/05 05:54:32;;;;;;;0.60;0.60;;;22.30;50.80;;;;;;222646;1268;24261;-52
2023/06/05 05:59:36;;;;;;;1.10;1.00;;;22.30;50.70;;;;;;222670;1268;22520;-57
2023/06/05 06:04:43;;;;;;;1.00;1.00;;;22.30;50.60;;;;;;222700;1265;22504;-55
2023/06/05 06:09:48;;;;;;;0.60;0.60;;;22.30;51.00;;;;;;222733;1268;25233;-53
2023/06/05 06:14:52;;;;;;;0.60;0.60;;;22.30;50.80;;;;;;222681;1268;24160;-54
2023/06/05 06:19:57;;;;;;;4.00;1.00;;;22.30;50.70;;;;;;222874;1268;22526;-54
2023/06/05 06:25:01;;;;;;;0.70;0.70;;;22.30;51.00;;;;;;222727;1253;23105;-50
2023/06/05 06:30:07;;;;;;;0.80;0.80;;;22.40;50.70;;;;;;222534;1268;22518;-52
2023/06/05 06:35:13;;;;;;;0.70;0.70;;;22.40;51.10;;;;;;222566;1266;22508;-54
2023/06/05 06:40:17;;;;;;;0.60;0.60;;;22.40;51.10;;;;;;222394;1268;22509;-51
2023/06/05 06:45:22;;;;;;;0.70;0.70;;;22.40;50.50;;;;;;222648;1268;22523;-53
2023/06/05 06:50:26;;;;;;;0.70;0.70;;;22.50;50.90;;;;;;222613;1264;24368;-53
2023/06/05 06:55:32;;;;;;;0.70;0.60;;;22.50;50.50;;;;;;222846;1268;25344;-49
2023/06/05 07:00:36;;;;;;;0.90;0.70;;;22.50;50.40;;;;;;222571;1266;22577;-52
2023/06/05 07:05:41;;;;;;;0.80;0.70;;;22.60;50.40;;;;;;222372;1268;22508;-51
2023/06/05 07:10:45;;;;;;;0.80;0.80;;;22.60;50.40;;;;;;222397;1268;22628;-54
2023/06/05 07:15:50;;;;;;;0.60;0.60;;;22.50;50.50;;;;;;222448;1268;22513;-55
2023/06/05 07:20:55;;;;;;;0.80;0.80;;;22.60;50.40;;;;;;222566;1265;26542;-52
2023/06/05 07:25:59;;;;;;;0.70;0.70;;;22.60;50.30;;;;;;222842;1268;22561;-52
2023/06/05 07:31:04;;;;;;;0.70;0.70;;;22.60;50.30;;;;;;222720;1265;22511;-54
2023/06/05 07:36:10;;;;;;;0.70;0.60;;;22.60;50.40;;;;;;222340;1267;22600;-53
2023/06/05 07:41:14;;;;;;;0.80;0.70;;;22.60;50.30;;;;;;222160;1261;22516;-51
2023/06/05 07:46:18;;;;;;;0.70;0.70;;;22.60;50.30;;;;;;222231;1269;24170;-53
2023/06/05 07:51:23;;;;;;;0.60;0.60;;;22.60;50.30;;;;;;222165;1269;22511;-53
2023/06/05 07:56:28;;;;;;;1.00;0.90;;;22.70;50.80;;;;;;222085;1269;24241;-50
2023/06/05 08:01:36;;;;;;;0.80;0.80;;;22.70;50.20;;;;;;222109;1265;22755;-55
2023/06/05 08:06:41;;;;;;;0.70;0.70;;;22.70;50.20;;;;;;222141;1269;22511;-52
2023/06/05 08:11:45;;;;;;;0.60;0.60;;;22.70;50.60;;;;;;222242;1269;22518;-53
2023/06/05 08:16:51;;;;;;;0.90;0.80;;;22.70;50.30;;;;;;222126;1269;23882;-54
2023/06/05 08:21:57;;;;;;;0.70;0.70;;;22.70;50.30;;;;;;222205;1269;22518;-52
2023/06/05 08:27:01;;;;;;;0.70;0.60;;;22.70;50.20;;;;;;222326;1268;24318;-53
2023/06/05 08:32:06;;;;;;;1.10;0.80;;;22.70;50.20;;;;;;222453;1268;22687;-55
2023/06/05 08:37:11;;;;;;;0.80;0.80;;;22.70;50.40;;;;;;222585;1268;22640;-56
2023/06/05 08:42:20;;;;;;;0.60;0.60;;;22.70;50.30;;;;;;222447;1268;22552;-53
2023/06/05 08:47:29;;;;;;;0.70;0.70;;;22.80;50.60;;;;;;222518;1268;22593;-57
2023/06/05 08:52:37;;;;;;;1.00;0.80;;;22.80;50.30;;;;;;222571;1268;22679;-53
2023/06/05 08:57:42;;;;;;;1.40;0.70;;;22.80;50.20;;;;;;222535;1267;22517;-55
2023/06/05 09:02:47;;;;;;;0.70;0.70;;;22.90;50.10;;;;;;222542;1268;24187;-53
2023/06/05 09:07:52;;;;;;;0.70;0.70;;;22.90;50.10;;;;;;222752;1264;22520;-57
2023/06/05 09:13:02;;;;;;;0.70;0.70;;;22.90;50.10;;;;;;222407;1268;22776;-57
2023/06/05 09:18:10;;;;;;;0.80;0.80;;;22.90;50.00;;;;;;222481;1268;24227;-53
2023/06/05 09:23:24;;;;;;;0.80;0.80;;;23.00;50.00;;;;;;222493;1259;22826;-52
2023/06/05 09:28:29;;;;;;;0.90;0.90;;;22.90;50.10;;;;;;222087;1271;25210;-52
2023/06/05 09:33:34;;;;;;;0.70;0.70;;;22.90;50.20;;;;;;221836;1272;25541;-53
2023/06/05 09:38:41;;;;;;;0.80;0.80;;;22.90;50.20;;;;;;221974;1272;24216;-55
2023/06/05 09:43:45;;;;;;;0.60;0.60;;;22.90;50.10;;;;;;221864;1253;25319;-51
2023/06/05 09:49:01;;;;;;;0.80;0.80;;;22.90;50.20;;;;;;222305;1269;22515;-52
2023/06/05 09:54:05;;;;;;;0.60;0.60;;;23.00;50.20;;;;;;222361;1269;22528;-52
2023/06/05 09:59:13;;;;;;;0.80;0.80;;;23.00;50.20;;;;;;222297;1269;22570;-51
2023/06/05 10:04:26;;;;;;;0.70;0.70;;;23.00;50.20;;;;;;222530;1269;22511;-51
2023/06/05 10:09:31;;;;;;;0.60;0.60;;;23.00;50.50;;;;;;222273;1268;25226;-50
2023/06/05 10:14:36;;;;;;;0.70;0.70;;;23.10;50.10;;;;;;222205;1269;22572;-54
2023/06/05 10:19:42;;;;;;;0.60;0.60;;;23.10;50.40;;;;;;222290;1268;22509;-54
2023/06/05 10:24:51;;;;;;;0.70;0.70;;;23.20;50.00;;;;;;222232;1269;23142;-54
2023/06/05 10:30:14;;;;;;;0.60;0.60;;;23.20;49.90;;;;;;222473;1263;25771;-53
2023/06/05 10:36:00;;;;;;;0.60;0.60;;;23.30;49.90;;;;;;222418;1269;23686;-53
2023/06/05 10:41:05;;;;;;;0.70;0.70;;;23.30;49.80;;;;;;222264;1269;24739;-54
2023/06/05 10:46:32;;;;;;;0.70;0.70;;;23.30;49.80;;;;;;222119;1269;22769;-54
2023/06/05 10:51:37;;;;;;;0.70;0.70;;;23.30;49.80;;;;;;222351;1269;22735;-54
2023/06/05 10:56:57;;;;;;;0.70;0.70;;;23.40;50.50;;;;;;222276;1268;22623;-54
2023/06/05 11:07:21;;;;;;;0.90;0.90;;;23.40;50.10;;;;;;222653;1268;25197;-51
2023/06/05 11:12:25;;;;;;;0.90;0.70;;;23.40;49.80;;;;;;222601;1266;24183;-54
2023/06/05 11:17:34;;;;;;;0.60;0.60;;;23.50;49.80;;;;;;222628;1268;23983;-53
2023/06/05 11:22:55;;;;;;;0.70;0.70;;;23.50;49.70;;;;;;222700;1267;22514;-51
2023/06/05 11:28:02;;;;;;;0.60;0.60;;;23.50;50.10;;;;;;222627;1268;24365;-53
2023/06/05 11:33:08;;;;;;;0.50;0.50;;;23.50;49.70;;;;;;222694;1268;25208;-52
2023/06/05 11:38:14;;;;;;;0.70;0.70;;;23.60;49.70;;;;;;222586;1268;22624;-56
2023/06/05 11:43:22;;;;;;;0.70;0.70;;;23.60;50.00;;;;;;222599;1268;25808;-54
2023/06/05 11:48:26;;;;;;;0.70;0.70;;;23.60;49.70;;;;;;222445;1268;22522;-56
2023/06/05 11:53:32;;;;;;;0.70;0.70;;;23.60;50.10;;;;;;222515;1268;25248;-54
2023/06/05 11:58:39;;;;;;;0.80;0.70;;;23.60;49.70;;;;;;222533;1268;22651;-55
2023/06/05 12:03:45;;;;;;;0.80;0.60;;;23.70;49.60;;;;;;222739;1265;22636;-54
2023/06/05 12:08:50;;;;;;;0.60;0.60;;;23.70;49.60;;;;;;222768;1268;25389;-54
2023/06/05 12:13:56;;;;;;;0.70;0.70;;;23.70;49.60;;;;;;222533;1268;22514;-52
2023/06/05 12:19:01;;;;;;;0.80;0.80;;;23.70;49.50;;;;;;222654;1268;25345;-53
2023/06/05 12:24:28;;;;;;;0.60;0.60;;;23.80;49.70;;;;;;222617;1268;24334;-54
2023/06/05 12:29:35;;;;;;;1.00;0.90;;;23.80;49.60;;;;;;222438;1268;22517;-51
2023/06/05 12:34:50;;;;;;;0.90;0.90;;;23.80;49.60;;;;;;222412;1269;22637;-53
2023/06/05 12:40:01;;;;;;;0.60;0.60;;;23.90;50.00;;;;;;222433;1268;24267;-55
2023/06/05 12:45:06;;;;;;;0.50;0.50;;;23.90;49.60;;;;;;222491;1267;25506;-53
2023/06/05 12:50:12;;;;;;;0.60;0.60;;;23.90;49.60;;;;;;222250;1268;23895;-50
2023/06/05 12:55:17;;;;;;;0.60;0.60;;;23.90;49.60;;;;;;222316;1256;22514;-53
2023/06/05 13:00:21;;;;;;;0.40;0.40;;;23.90;49.70;;;;;;222522;1268;22511;-53
2023/06/05 13:05:25;;;;;;;0.70;0.70;;;23.90;49.60;;;;;;222620;1268;22524;-52
2023/06/05 13:10:30;;;;;;;0.60;0.60;;;23.90;49.60;;;;;;222694;1267;25303;-53
2023/06/05 13:15:34;;;;;;;0.40;0.40;;;24.00;49.70;;;;;;222475;1268;24186;-54
2023/06/05 13:20:42;;;;;;;0.60;0.60;;;24.00;49.60;;;;;;222602;1268;24177;-53
2023/06/05 13:25:46;;;;;;;0.50;0.50;;;23.90;49.60;;;;;;222627;1268;22516;-56
2023/06/05 13:30:51;;;;;;;0.70;0.60;;;24.00;49.60;;;;;;222642;1268;24221;-51
2023/06/05 13:35:56;;;;;;;0.80;0.80;;;24.00;49.60;;;;;;222551;1268;22510;-54
2023/06/05 13:41:00;;;;;;;0.50;0.50;;;24.00;50.00;;;;;;222650;1266;25622;-54
2023/06/05 13:46:07;;;;;;;0.50;0.50;;;24.00;49.60;;;;;;221210;1275;24196;-53
2023/06/05 13:51:11;;;;;;;0.60;0.60;;;24.00;49.70;;;;;;221242;1275;24244;-55
2023/06/05 13:56:16;;;;;;;0.60;0.60;;;24.00;49.80;;;;;;220914;1275;22779;-54
2023/06/05 14:01:21;;;;;;;0.80;0.80;;;24.00;49.70;;;;;;221319;1275;24192;-54
2023/06/05 14:06:25;;;;;;;0.80;0.70;;;24.00;49.70;;;;;;221377;1274;22530;-56
2023/06/05 14:11:30;;;;;;;0.50;0.50;;;24.00;50.20;;;;;;222259;1268;192676;-55
2023/06/05 14:16:34;;;;;;;0.60;0.60;;;24.10;49.80;;;;;;222909;1268;24312;-54
2023/06/05 14:21:41;;;;;;;0.60;0.60;;;24.10;49.90;;;;;;222218;1269;22514;-52
2023/06/05 14:26:46;;;;;;;0.50;0.50;;;24.10;49.70;;;;;;221113;1275;24199;-58
2023/06/05 14:31:51;;;;;;;0.70;0.70;;;24.10;49.80;;;;;;221381;1273;22533;-54
2023/06/05 14:36:55;;;;;;;0.60;0.60;;;24.10;49.90;;;;;;221593;1273;22521;-53
2023/06/05 14:42:00;;;;;;;0.60;0.60;;;24.10;50.50;;;;;;221471;1268;24285;-52
2023/06/05 14:47:05;;;;;;;0.70;0.70;;;24.10;49.80;;;;;;222926;1268;25514;-54
2023/06/05 14:52:09;;;;;;;0.60;0.60;;;24.10;49.90;;;;;;222736;1268;22523;-54
2023/06/05 14:57:14;;;;;;;0.50;0.50;;;24.10;50.20;;;;;;222735;1268;24183;-55
2023/06/05 15:02:22;;;;;;;0.60;0.60;;;24.10;50.00;;;;;;222403;1268;25313;-54
2023/06/05 15:07:38;;;;;;;0.60;0.60;;;24.10;50.10;;;;;;222825;1268;22524;-53
2023/06/05 15:12:43;;;;;;;0.60;0.60;;;24.10;49.70;;;;;;222696;1268;22510;-54
2023/06/05 15:17:48;;;;;;;0.50;0.50;;;24.10;50.30;;;;;;222696;1267;22510;-52
2023/06/05 15:22:56;;;;;;;0.70;0.70;;;24.10;50.60;;;;;;222638;1268;22516;-53
2023/06/05 15:28:18;;;;;;;0.60;0.60;;;24.10;50.20;;;;;;222510;1268;22573;-53
2023/06/05 15:33:22;;;;;;;0.50;0.50;;;24.10;50.50;;;;;;222464;1269;25606;-56
2023/06/05 15:38:27;;;;;;;0.50;0.50;;;24.10;50.10;;;;;;222395;1269;22516;-54
2023/06/05 15:43:31;;;;;;;0.60;0.60;;;24.10;50.50;;;;;;222443;1269;22530;-51
2023/06/05 15:48:35;;;;;;;0.50;0.50;;;24.10;49.90;;;;;;222640;1269;25281;-53
2023/06/05 15:53:40;;;;;;;0.60;0.60;;;24.10;50.40;;;;;;222553;1256;24298;-52
2023/06/05 15:59:00;;;;;;;0.60;0.60;;;24.10;50.40;;;;;;222510;1268;25606;-53
2023/06/05 16:04:04;;;;;;;0.60;0.60;;;24.10;50.30;;;;;;222516;1268;22495;-54
2023/06/05 16:09:09;;;;;;;0.40;0.40;;;24.10;50.40;;;;;;222747;1268;22518;-53
2023/06/05 16:14:13;;;;;;;0.50;0.50;;;24.10;50.80;;;;;;222295;1268;22638;-54
2023/06/05 16:19:17;;;;;;;0.50;0.50;;;24.00;50.50;;;;;;222783;1268;24818;-55
2023/06/05 16:24:22;;;;;;;0.40;0.40;;;24.00;50.50;;;;;;222638;1268;22593;-54
2023/06/05 16:29:27;;;;;;;0.80;0.80;;;24.10;50.60;;;;;;222490;1268;22533;-54
2023/06/05 16:34:31;;;;;;;0.50;0.40;;;24.00;50.80;;;;;;222481;1269;25308;-55
2023/06/05 16:39:37;;;;;;;0.60;0.60;;;24.00;50.50;;;;;;222322;1269;24257;-54
2023/06/05 16:44:41;;;;;;;0.50;0.50;;;24.10;50.70;;;;;;222442;1269;24404;-54
2023/06/05 16:49:45;;;;;;;0.60;0.60;;;24.00;50.60;;;;;;222309;1267;23925;-55
2023/06/05 16:54:50;;;;;;;0.50;0.50;;;24.00;50.70;;;;;;222531;1269;24357;-52
2023/06/05 16:59:54;;;;;;;0.70;0.70;;;24.00;50.60;;;;;;222495;1269;24321;-55
2023/06/05 17:04:58;;;;;;;0.50;0.50;;;24.00;50.70;;;;;;222428;1269;24240;-52
2023/06/05 17:10:03;;;;;;;0.70;0.70;;;24.00;50.70;;;;;;222437;1269;23431;-54
2023/06/05 17:15:09;;;;;;;0.60;0.60;;;24.00;50.80;;;;;;222444;1266;25193;-52
2023/06/05 17:20:13;;;;;;;0.80;0.50;;;24.00;51.00;;;;;;222549;1267;22518;-55
2023/06/05 17:25:17;;;;;;;0.40;0.40;;;24.00;50.70;;;;;;222479;1269;24209;-54
2023/06/05 17:30:21;;;;;;;0.50;0.50;;;24.00;50.80;;;;;;222471;1268;23131;-52
2023/06/05 17:35:26;;;;;;;0.40;0.40;;;23.90;50.80;;;;;;222614;1268;24422;-54
2023/06/05 17:40:30;;;;;;;0.50;0.50;;;23.90;50.80;;;;;;222536;1268;22519;-53
2023/06/05 17:45:34;;;;;;;0.50;0.50;;;23.90;50.80;;;;;;222512;1268;22518;-51
2023/06/05 17:50:39;;;;;;;0.70;0.70;;;23.90;50.90;;;;;;222621;1268;22528;-53
2023/06/05 17:55:43;;;;;;;0.50;0.50;;;23.80;50.90;;;;;;222709;1266;22518;-54
2023/06/05 18:00:47;;;;;;;0.60;0.60;;;23.90;51.00;;;;;;222559;1260;22520;-53
2023/06/05 18:05:53;;;;;;;0.50;0.50;;;23.90;51.00;;;;;;222367;1268;22976;-55
2023/06/05 18:10:58;;;;;;;0.60;0.50;;;23.80;51.00;;;;;;222559;1268;25268;-53
2023/06/05 18:16:02;;;;;;;0.70;0.50;;;23.80;51.10;;;;;;222370;1268;22466;-52
2023/06/05 18:21:11;;;;;;;0.50;0.50;;;23.80;51.00;;;;;;222367;1267;22512;-54
2023/06/05 18:26:18;;;;;;;0.50;0.50;;;23.80;51.00;;;;;;222530;1268;24337;-51
2023/06/05 18:31:23;;;;;;;0.50;0.50;;;23.80;50.90;;;;;;222505;1261;22532;-54
2023/06/05 18:36:27;;;;;;;0.40;0.40;;;23.90;51.20;;;;;;222401;1268;23050;-55
2023/06/05 18:41:31;;;;;;;0.30;0.30;;;23.80;50.90;;;;;;222652;1268;25112;-54
2023/06/05 18:46:36;;;;;;;0.50;0.50;;;23.80;51.40;;;;;;222529;1264;22620;-58
2023/06/05 18:51:40;;;;;;;0.70;0.70;;;23.80;51.10;;;;;;222508;1268;24790;-57
2023/06/05 18:56:44;;;;;;;0.60;0.60;;;23.70;51.10;;;;;;222536;1268;22549;-54
2023/06/05 19:01:52;;;;;;;0.40;0.40;;;23.70;51.10;;;;;;222212;1268;22510;-48
2023/06/05 19:06:59;;;;;;;1.20;0.70;;;23.70;51.50;;;;;;222219;1267;23070;-51
2023/06/05 19:12:05;;;;;;;0.60;0.60;;;23.70;51.50;;;;;;222497;1268;22641;-53
2023/06/05 19:17:09;;;;;;;0.60;0.60;;;23.70;51.10;;;;;;222700;1268;22518;-53
2023/06/05 19:22:15;;;;;;;0.50;0.50;;;23.70;51.40;;;;;;222535;1268;22695;-53
2023/06/05 19:27:21;;;;;;;0.60;0.60;;;23.70;51.50;;;;;;222705;1268;24153;-54
2023/06/05 19:32:25;;;;;;;0.50;0.50;;;23.70;51.10;;;;;;222413;1269;25423;-54
2023/06/05 19:37:30;;;;;;;0.60;0.60;;;23.70;51.20;;;;;;222395;1266;22514;-54
2023/06/05 19:42:34;;;;;;;0.50;0.50;;;23.70;51.20;;;;;;222297;1267;22605;-55
2023/06/05 19:47:38;;;;;;;0.80;0.70;;;23.70;51.20;;;;;;222415;1269;26625;-52
2023/06/05 19:52:43;;;;;;;0.70;0.70;;;23.60;51.20;;;;;;222238;1269;22514;-54
2023/06/05 19:57:47;;;;;;;0.40;0.40;;;23.70;51.20;;;;;;222307;1269;22532;-53
2023/06/05 20:02:51;;;;;;;0.70;0.70;;;23.70;51.20;;;;;;222187;1268;22572;-52
2023/06/05 20:07:56;;;;;;;0.50;0.50;;;23.60;51.10;;;;;;222205;1269;22542;-51
2023/06/05 20:13:00;;;;;;;0.90;0.50;;;23.70;51.50;;;;;;222436;1269;22529;-55
2023/06/05 20:18:05;;;;;;;0.50;0.50;;;23.60;51.60;;;;;;222375;1268;22514;-51
2023/06/05 20:23:09;;;;;;;0.60;0.60;;;23.60;51.20;;;;;;222186;1269;22640;-51
2023/06/05 20:28:15;;;;;;;0.70;0.70;;;23.60;51.50;;;;;;222477;1269;25449;-53
2023/06/05 20:33:20;;;;;;;0.70;0.70;;;23.60;51.20;;;;;;222306;1268;24150;-52
2023/06/05 20:38:24;;;;;;;0.70;0.70;;;23.60;51.20;;;;;;222406;1268;26621;-54
2023/06/05 20:43:29;;;;;;;0.80;0.80;;;23.60;51.20;;;;;;222716;1268;22564;-51
2023/06/05 20:48:35;;;;;;;0.60;0.60;;;23.60;51.20;;;;;;222443;1268;22527;-53
2023/06/05 20:53:39;;;;;;;0.70;0.50;;;23.60;51.30;;;;;;222776;1264;25319;-52
2023/06/05 20:58:43;;;;;;;0.50;0.50;;;23.60;51.30;;;;;;222715;1268;23922;-52
2023/06/05 21:03:48;;;;;;;0.80;0.70;;;23.60;51.30;;;;;;222458;1268;22527;-55
2023/06/05 21:08:54;;;;;;;0.70;0.70;;;23.60;51.30;;;;;;222646;1265;22512;-55
2023/06/05 21:13:58;;;;;;;0.90;0.90;;;23.60;51.30;;;;;;222510;1267;24166;-53
2023/06/05 21:19:03;;;;;;;0.70;0.70;;;23.60;51.30;;;;;;222416;1268;23150;-52
2023/06/05 21:24:07;;;;;;;0.70;0.60;;;23.60;51.40;;;;;;222504;1268;24225;-58
2023/06/05 21:29:11;;;;;;;0.60;0.60;;;23.60;51.40;;;;;;222425;1268;24260;-53
2023/06/05 21:34:16;;;;;;;0.60;0.60;;;23.60;51.50;;;;;;222514;1261;24193;-55
2023/06/05 21:39:20;;;;;;;0.60;0.60;;;23.60;51.50;;;;;;222521;1268;25269;-54
2023/06/05 21:44:24;;;;;;;0.80;0.80;;;23.60;51.50;;;;;;222405;1268;23905;-54
2023/06/05 21:49:28;;;;;;;0.90;0.80;;;23.60;51.50;;;;;;222479;1268;24254;-51
2023/06/05 21:54:34;;;;;;;0.70;0.70;;;23.60;51.50;;;;;;222636;1268;22505;-53
2023/06/05 21:59:38;;;;;;;0.90;0.90;;;23.60;51.50;;;;;;222561;1268;24111;-52
2023/06/05 22:04:43;;;;;;;0.60;0.60;;;23.60;51.60;;;;;;222530;1264;22507;-53
2023/06/05 22:09:47;;;;;;;0.60;0.60;;;23.60;52.00;;;;;;222442;1265;22821;-53
2023/06/05 22:14:52;;;;;;;0.80;0.80;;;23.60;51.60;;;;;;222197;1268;24267;-57
2023/06/05 22:19:57;;;;;;;0.80;0.80;;;23.50;51.60;;;;;;222627;1268;25639;-55
2023/06/05 22:25:01;;;;;;;0.70;0.70;;;23.50;51.70;;;;;;222591;1268;24334;-51
2023/06/05 22:30:06;;;;;;;0.70;0.70;;;23.50;51.80;;;;;;222631;1260;23168;-54
2023/06/05 22:35:11;;;;;;;0.80;0.80;;;23.50;51.90;;;;;;222587;1268;25259;-52
2023/06/05 22:40:15;;;;;;;0.60;0.60;;;23.40;52.50;;;;;;222530;1268;24365;-55
2023/06/05 22:45:21;;;;;;;0.80;0.80;;;23.40;51.80;;;;;;222567;1268;24365;-53
2023/06/05 22:50:26;;;;;;;1.00;0.90;;;23.50;51.90;;;;;;222359;1268;22508;-53
2023/06/05 22:55:31;;;;;;;0.70;0.70;;;23.50;51.90;;;;;;222462;1268;22645;-51
2023/06/05 23:00:36;;;;;;;0.80;0.80;;;23.50;52.30;;;;;;222456;1244;25841;-53
2023/06/05 23:05:40;;;;;;;0.70;0.70;;;23.40;51.90;;;;;;222265;1268;22514;-53
2023/06/05 23:10:44;;;;;;;0.70;0.70;;;23.40;51.90;;;;;;222436;1268;24354;-51
2023/06/05 23:15:52;;;;;;;0.80;0.60;;;23.40;51.90;;;;;;222216;1268;22665;-50
2023/06/05 23:20:56;;;;;;;0.70;0.70;;;23.40;51.90;;;;;;222285;1268;22514;-53
2023/06/05 23:26:00;;;;;;;0.90;0.90;;;23.40;52.00;;;;;;222326;1268;24309;-55
2023/06/05 23:31:05;;;;;;;0.60;0.50;;;23.40;52.00;;;;;;222319;1268;24263;-52
2023/06/05 23:36:11;;;;;;;0.70;0.70;;;23.40;52.00;;;;;;222291;1269;24335;-53
2023/06/05 23:41:15;;;;;;;0.70;0.70;;;23.40;52.00;;;;;;222324;1269;24328;-53
2023/06/05 23:46:20;;;;;;;0.60;0.60;;;23.40;52.10;;;;;;222307;1265;22688;-55
2023/06/05 23:51:27;;;;;;;0.70;0.70;;;23.40;52.10;;;;;;222196;1269;22626;-52
2023/06/05 23:56:31;;;;;;;0.70;0.70;;;23.40;52.50;;;;;;222311;1265;22526;-57
